FLANKR1 VAPO-VAPO
Flight info
| Callsign | FLANKR1 |
|---|---|
| Flight time | 0h 13m |
| Altitude | 12000 |
| Route | PPN ROUTINE EXCERCISE SECTOR NORTH EAST |
| Aircraft | SU27/M-ICAO/L |
Departure
| Time | 2026-04-19 03:37 |
|---|---|
| Airport | Pune International Airport (VAPO) |
Arrival
| Time | 2026-04-19 03:50 |
|---|---|
| Airport | Pune International Airport (VAPO) |
| Time | Latitude | Longitude | Altitude | Speed | Heading |
|---|---|---|---|---|---|
| 2026-04-19 03:35 | 18.57881 | 73.92038 | 1917 ft | 0 kts | 354° |
| 2026-04-19 03:35 | 18.57990 | 73.92029 | 1917 ft | 36 kts | 356° |
| 2026-04-19 03:35 | 18.58084 | 73.91971 | 1917 ft | 11 kts | 342° |
| 2026-04-19 03:36 | 18.58194 | 73.91973 | 1917 ft | 21 kts | 0° |
| 2026-04-19 03:36 | 18.58229 | 73.91931 | 1917 ft | 0 kts | 276° |
| 2026-04-19 03:36 | 18.58255 | 73.91417 | 1945 ft | 236 kts | 272° |
| 2026-04-19 03:37 | 18.58316 | 73.89937 | 6523 ft | 53 kts | 262° |
| 2026-04-19 03:37 | 18.59130 | 73.89615 | 12217 ft | 184 kts | 3° |
| 2026-04-19 03:37 | 18.60029 | 73.89422 | 11156 ft | 143 kts | 234° |
| 2026-04-19 03:37 | 18.57747 | 73.89208 | 8292 ft | 462 kts | 155° |
| 2026-04-19 03:38 | 18.56290 | 73.93213 | 5312 ft | 798 kts | 83° |
| 2026-04-19 03:38 | 18.58210 | 73.99006 | 4787 ft | 857 kts | 65° |
| 2026-04-19 03:38 | 18.62266 | 74.02883 | 3605 ft | 765 kts | 38° |
| 2026-04-19 03:38 | 18.65299 | 74.07814 | 3989 ft | 835 kts | 65° |
| 2026-04-19 03:39 | 18.68610 | 74.12966 | 4235 ft | 857 kts | 64° |
| 2026-04-19 03:39 | 18.71331 | 74.18662 | 3213 ft | 886 kts | 60° |
| 2026-04-19 03:39 | 18.74142 | 74.23779 | 3672 ft | 685 kts | 50° |
| 2026-04-19 03:39 | 18.77100 | 74.27206 | 3759 ft | 719 kts | 45° |
| 2026-04-19 03:40 | 18.79946 | 74.30422 | 3190 ft | 499 kts | 43° |
| 2026-04-19 03:40 | 18.81422 | 74.33541 | 3137 ft | 626 kts | 73° |
| 2026-04-19 03:40 | 18.82362 | 74.36601 | 8858 ft | 32 kts | 237° |
| 2026-04-19 03:40 | 18.82303 | 74.36044 | 13640 ft | 126 kts | 261° |
| 2026-04-19 03:41 | 18.81517 | 74.35939 | 9996 ft | 139 kts | 76° |
| 2026-04-19 03:41 | 18.82586 | 74.36624 | 9401 ft | 143 kts | 325° |
| 2026-04-19 03:41 | 18.82690 | 74.35996 | 7183 ft | 175 kts | 209° |
| 2026-04-19 03:41 | 18.81659 | 74.35964 | 5669 ft | 142 kts | 141° |
| 2026-04-19 03:42 | 18.81910 | 74.37033 | 3972 ft | 171 kts | 67° |
| 2026-04-19 03:42 | 18.82418 | 74.38111 | 3226 ft | 192 kts | 36° |
| 2026-04-19 03:42 | 18.83268 | 74.38306 | 3975 ft | 202 kts | 15° |
| 2026-04-19 03:42 | 18.85803 | 74.39693 | 3657 ft | 585 kts | 72° |
| 2026-04-19 03:43 | 18.83182 | 74.42334 | 3892 ft | 620 kts | 211° |
| 2026-04-19 03:43 | 18.82848 | 74.38652 | 4702 ft | 342 kts | 252° |
| 2026-04-19 03:43 | 18.80989 | 74.38920 | 8955 ft | 161 kts | 273° |
| 2026-04-19 03:43 | 18.82746 | 74.37602 | 7290 ft | 366 kts | 270° |
| 2026-04-19 03:44 | 18.82504 | 74.37115 | 13989 ft | 18 kts | 70° |
| 2026-04-19 03:44 | 18.82483 | 74.37302 | 14973 ft | 22 kts | 153° |
| 2026-04-19 03:44 | 18.82573 | 74.37423 | 10252 ft | 60 kts | 126° |
| 2026-04-19 03:44 | 18.80743 | 74.37183 | 5734 ft | 358 kts | 189° |
| 2026-04-19 03:45 | 18.79279 | 74.38217 | 3305 ft | 305 kts | 32° |
| 2026-04-19 03:45 | 18.81145 | 74.39058 | 1907 ft | 292 kts | 20° |
| 2026-04-19 03:45 | 18.82545 | 74.40274 | 2551 ft | 214 kts | 340° |
| 2026-04-19 03:45 | 18.83160 | 74.39126 | 1878 ft | 181 kts | 273° |
| 2026-04-19 03:46 | 18.83596 | 74.36915 | 2059 ft | 440 kts | 301° |
| 2026-04-19 03:46 | 18.82134 | 74.35241 | 2832 ft | 611 kts | 174° |
| 2026-04-19 03:46 | 18.77795 | 74.32956 | 4950 ft | 814 kts | 224° |
| 2026-04-19 03:46 | 18.74579 | 74.27990 | 3753 ft | 826 kts | 250° |
| 2026-04-19 03:47 | 18.72643 | 74.22150 | 5067 ft | 858 kts | 251° |
| 2026-04-19 03:47 | 18.70578 | 74.16191 | 4208 ft | 869 kts | 250° |
| 2026-04-19 03:47 | 18.68315 | 74.10308 | 3783 ft | 854 kts | 244° |
| 2026-04-19 03:47 | 18.64912 | 74.05172 | 4679 ft | 863 kts | 229° |
| 2026-04-19 03:48 | 18.60585 | 74.01572 | 5424 ft | 630 kts | 217° |
| 2026-04-19 03:48 | 18.57685 | 73.99732 | 4853 ft | 356 kts | 255° |
| 2026-04-19 03:48 | 18.57832 | 73.97729 | 4167 ft | 223 kts | 275° |
| 2026-04-19 03:48 | 18.57941 | 73.96313 | 3285 ft | 166 kts | 274° |
| 2026-04-19 03:49 | 18.58018 | 73.95229 | 2580 ft | 140 kts | 274° |
| 2026-04-19 03:49 | 18.58097 | 73.94098 | 2266 ft | 146 kts | 273° |
| 2026-04-19 03:49 | 18.58166 | 73.92987 | 1967 ft | 163 kts | 274° |
| 2026-04-19 03:49 | 18.58221 | 73.92008 | 1920 ft | 104 kts | 274° |
| 2026-04-19 03:50 | 18.58255 | 73.91415 | 1917 ft | 30 kts | 273° |
| 2026-04-19 03:50 | 18.57935 | 73.92091 | 1917 ft | 0 kts | 275° |